sensor_id;sensor_type;location;lat;lon;timestamp;pressure;altitude;pressure_sealevel;temperature;humidity
3254;BME280;1639;42.804;23.342;2023-04-19T00:00:38;73007.44;;;-148.52;86.97
3254;BME280;1639;42.804;23.342;2023-04-19T00:03:08;73007.44;;;-148.52;85.91
3254;BME280;1639;42.804;23.342;2023-04-19T00:05:34;73015.72;;;-148.52;86.19
3254;BME280;1639;42.804;23.342;2023-04-19T00:07:59;73003.31;;;-148.52;88.57
3254;BME280;1639;42.804;23.342;2023-04-19T00:10:25;73001.25;;;-148.52;88.94
3254;BME280;1639;42.804;23.342;2023-04-19T00:12:51;72995.03;;;-148.52;90.35
3254;BME280;1639;42.804;23.342;2023-04-19T00:15:17;72997.09;;;-148.52;89.30
3254;BME280;1639;42.804;23.342;2023-04-19T00:17:42;72982.63;;;-148.52;88.94
3254;BME280;1639;42.804;23.342;2023-04-19T00:20:08;72976.41;;;-148.52;87.55
3254;BME280;1639;42.804;23.342;2023-04-19T00:22:34;72968.16;;;-148.52;86.06
3254;BME280;1639;42.804;23.342;2023-04-19T00:25:00;72957.81;;;-148.52;85.68
3254;BME280;1639;42.804;23.342;2023-04-19T00:27:26;72957.81;;;-148.52;86.63
3254;BME280;1639;42.804;23.342;2023-04-19T00:29:51;72947.47;;;-148.52;87.77
3254;BME280;1639;42.804;23.342;2023-04-19T00:32:16;72941.25;;;-148.52;87.02
3254;BME280;1639;42.804;23.342;2023-04-19T00:34:42;72926.78;;;-148.52;86.51
3254;BME280;1639;42.804;23.342;2023-04-19T00:37:08;72916.44;;;-148.52;85.66
3254;BME280;1639;42.804;23.342;2023-04-19T00:39:33;72920.56;;;-148.52;84.54
3254;BME280;1639;42.804;23.342;2023-04-19T00:41:59;72916.44;;;-148.52;84.62
3254;BME280;1639;42.804;23.342;2023-04-19T00:44:25;72914.38;;;-148.52;84.65
3254;BME280;1639;42.804;23.342;2023-04-19T00:46:51;72918.50;;;-148.52;84.42
3254;BME280;1639;42.804;23.342;2023-04-19T00:49:17;72920.56;;;-148.52;85.86
3254;BME280;1639;42.804;23.342;2023-04-19T00:51:44;72928.84;;;-148.52;84.39
3254;BME280;1639;42.804;23.342;2023-04-19T00:54:11;72922.66;;;-148.52;84.24
3254;BME280;1639;42.804;23.342;2023-04-19T00:56:37;72941.25;;;-148.52;87.85
3254;BME280;1639;42.804;23.342;2023-04-19T00:59:03;72939.19;;;-148.52;86.56
3254;BME280;1639;42.804;23.342;2023-04-19T01:01:28;72943.31;;;-148.52;86.17
3254;BME280;1639;42.804;23.342;2023-04-19T01:03:54;72943.31;;;-148.52;87.50
3254;BME280;1639;42.804;23.342;2023-04-19T01:06:19;72943.31;;;-148.52;88.81
3254;BME280;1639;42.804;23.342;2023-04-19T01:08:45;72951.59;;;-148.52;92.61
3254;BME280;1639;42.804;23.342;2023-04-19T01:11:10;72933.00;;;-148.52;90.95
3254;BME280;1639;42.804;23.342;2023-04-19T01:13:36;72918.50;;;-148.52;89.74
3254;BME280;1639;42.804;23.342;2023-04-19T01:16:01;72916.44;;;-148.52;88.69
3254;BME280;1639;42.804;23.342;2023-04-19T01:18:26;72906.09;;;-148.52;87.93
3254;BME280;1639;42.804;23.342;2023-04-19T01:20:57;72897.81;;;-148.52;88.13
3254;BME280;1639;42.804;23.342;2023-04-19T01:23:23;72897.81;;;-148.52;88.85
3254;BME280;1639;42.804;23.342;2023-04-19T01:25:48;72889.56;;;-148.52;89.87
3254;BME280;1639;42.804;23.342;2023-04-19T01:28:14;72881.28;;;-148.52;88.96
3254;BME280;1639;42.804;23.342;2023-04-19T01:30:40;72875.06;;;-148.52;87.96
3254;BME280;1639;42.804;23.342;2023-04-19T01:33:06;72870.94;;;-148.52;87.38
3254;BME280;1639;42.804;23.342;2023-04-19T01:35:31;72860.59;;;-148.52;86.36
3254;BME280;1639;42.804;23.342;2023-04-19T01:37:56;72856.47;;;-148.52;85.78
3254;BME280;1639;42.804;23.342;2023-04-19T01:40:25;72850.25;;;-148.52;84.51
3254;BME280;1639;42.804;23.342;2023-04-19T01:42:51;72842.00;;;-148.52;83.69
3254;BME280;1639;42.804;23.342;2023-04-19T01:45:17;72839.91;;;-148.52;82.95
3254;BME280;1639;42.804;23.342;2023-04-19T01:47:42;72852.31;;;-148.52;83.24
3254;BME280;1639;42.804;23.342;2023-04-19T01:50:08;72852.31;;;-148.52;85.48
3254;BME280;1639;42.804;23.342;2023-04-19T01:52:33;72856.47;;;-148.52;88.12
3254;BME280;1639;42.804;23.342;2023-04-19T01:54:59;72854.41;;;-148.52;89.18
3254;BME280;1639;42.804;23.342;2023-04-19T01:57:24;72848.19;;;-148.52;90.62
3254;BME280;1639;42.804;23.342;2023-04-19T01:59:52;72850.25;;;-148.52;92.33
3254;BME280;1639;42.804;23.342;2023-04-19T02:02:17;72854.41;;;-148.52;92.46
3254;BME280;1639;42.804;23.342;2023-04-19T02:04:42;72852.31;;;-148.52;94.21
3254;BME280;1639;42.804;23.342;2023-04-19T02:07:08;72854.41;;;-148.52;95.26
3254;BME280;1639;42.804;23.342;2023-04-19T02:09:37;72856.47;;;-148.52;96.26
3254;BME280;1639;42.804;23.342;2023-04-19T02:12:03;72858.53;;;-148.52;98.21
3254;BME280;1639;42.804;23.342;2023-04-19T02:14:28;72856.47;;;-148.52;98.73
3254;BME280;1639;42.804;23.342;2023-04-19T02:16:54;72852.31;;;-148.52;97.87
3254;BME280;1639;42.804;23.342;2023-04-19T02:19:19;72856.47;;;-148.52;98.44
3254;BME280;1639;42.804;23.342;2023-04-19T02:21:45;72856.47;;;-148.52;100.00
3254;BME280;1639;42.804;23.342;2023-04-19T02:24:10;72864.75;;;-148.52;100.00
3254;BME280;1639;42.804;23.342;2023-04-19T02:26:36;72862.66;;;-148.52;100.00
3254;BME280;1639;42.804;23.342;2023-04-19T02:29:01;72868.88;;;-148.52;100.00
3254;BME280;1639;42.804;23.342;2023-04-19T02:31:27;72860.59;;;-148.52;100.00
3254;BME280;1639;42.804;23.342;2023-04-19T02:33:52;72864.75;;;-148.52;100.00
3254;BME280;1639;42.804;23.342;2023-04-19T02:36:17;72868.88;;;-148.52;100.00
3254;BME280;1639;42.804;23.342;2023-04-19T02:38:43;72866.81;;;-148.52;100.00
3254;BME280;1639;42.804;23.342;2023-04-19T02:41:08;72862.66;;;-148.52;100.00
3254;BME280;1639;42.804;23.342;2023-04-19T02:43:34;72864.75;;;-148.52;100.00
3254;BME280;1639;42.804;23.342;2023-04-19T02:46:00;72862.66;;;-148.52;100.00
3254;BME280;1639;42.804;23.342;2023-04-19T02:48:25;72879.22;;;-148.52;100.00
3254;BME280;1639;42.804;23.342;2023-04-19T02:50:51;72875.06;;;-148.52;100.00
3254;BME280;1639;42.804;23.342;2023-04-19T02:53:16;72879.22;;;-148.52;100.00
3254;BME280;1639;42.804;23.342;2023-04-19T02:55:41;72877.16;;;-148.52;100.00
3254;BME280;1639;42.804;23.342;2023-04-19T02:58:07;72897.81;;;-148.52;100.00
3254;BME280;1639;42.804;23.342;2023-04-19T03:00:32;72893.69;;;-148.52;100.00
3254;BME280;1639;42.804;23.342;2023-04-19T03:02:58;72893.69;;;-148.52;100.00
3254;BME280;1639;42.804;23.342;2023-04-19T03:05:23;72895.75;;;-148.52;100.00
3254;BME280;1639;42.804;23.342;2023-04-19T03:07:48;72908.16;;;-148.52;100.00
3254;BME280;1639;42.804;23.342;2023-04-19T03:10:14;72912.31;;;-148.52;100.00
3254;BME280;1639;42.804;23.342;2023-04-19T03:12:40;72922.66;;;-148.52;100.00
3254;BME280;1639;42.804;23.342;2023-04-19T03:15:07;72939.19;;;-148.52;100.00
3254;BME280;1639;42.804;23.342;2023-04-19T03:17:32;72941.25;;;-148.52;100.00
3254;BME280;1639;42.804;23.342;2023-04-19T03:19:57;72943.31;;;-148.52;100.00
3254;BME280;1639;42.804;23.342;2023-04-19T03:22:23;72930.91;;;-148.52;100.00
3254;BME280;1639;42.804;23.342;2023-04-19T03:24:48;72935.06;;;-148.52;100.00
3254;BME280;1639;42.804;23.342;2023-04-19T03:27:13;72935.06;;;-148.52;100.00
3254;BME280;1639;42.804;23.342;2023-04-19T03:29:39;72935.06;;;-148.52;100.00
3254;BME280;1639;42.804;23.342;2023-04-19T03:32:05;72935.06;;;-148.52;100.00
3254;BME280;1639;42.804;23.342;2023-04-19T03:34:31;72945.41;;;-148.52;100.00
3254;BME280;1639;42.804;23.342;2023-04-19T03:36:56;72955.75;;;-148.52;100.00
3254;BME280;1639;42.804;23.342;2023-04-19T03:39:22;72959.88;;;-148.52;100.00
3254;BME280;1639;42.804;23.342;2023-04-19T03:41:47;72964.00;;;-148.52;100.00
3254;BME280;1639;42.804;23.342;2023-04-19T03:44:12;72968.16;;;-148.52;100.00
3254;BME280;1639;42.804;23.342;2023-04-19T03:46:38;72968.16;;;-148.52;100.00
3254;BME280;1639;42.804;23.342;2023-04-19T03:49:03;72974.34;;;-148.52;100.00
3254;BME280;1639;42.804;23.342;2023-04-19T03:51:29;72966.06;;;-148.52;100.00
3254;BME280;1639;42.804;23.342;2023-04-19T03:53:55;72961.94;;;-148.52;100.00
3254;BME280;1639;42.804;23.342;2023-04-19T03:56:21;72957.81;;;-148.52;100.00
3254;BME280;1639;42.804;23.342;2023-04-19T03:58:46;72961.94;;;-148.52;100.00
3254;BME280;1639;42.804;23.342;2023-04-19T04:01:21;72964.00;;;-148.52;100.00
3254;BME280;1639;42.804;23.342;2023-04-19T04:03:48;72955.75;;;-148.52;100.00
3254;BME280;1639;42.804;23.342;2023-04-19T04:06:14;72957.81;;;-148.52;100.00
3254;BME280;1639;42.804;23.342;2023-04-19T04:08:39;72959.88;;;-148.52;100.00
3254;BME280;1639;42.804;23.342;2023-04-19T04:11:05;72957.81;;;-148.52;100.00
3254;BME280;1639;42.804;23.342;2023-04-19T04:13:30;72951.59;;;-148.52;100.00
3254;BME280;1639;42.804;23.342;2023-04-19T04:15:55;72953.66;;;-148.52;100.00
3254;BME280;1639;42.804;23.342;2023-04-19T04:18:21;72957.81;;;-148.52;100.00
3254;BME280;1639;42.804;23.342;2023-04-19T04:20:47;72951.59;;;-148.52;100.00
3254;BME280;1639;42.804;23.342;2023-04-19T04:23:13;72961.94;;;-148.52;100.00
3254;BME280;1639;42.804;23.342;2023-04-19T04:25:38;72955.75;;;-148.52;100.00
3254;BME280;1639;42.804;23.342;2023-04-19T04:28:04;72955.75;;;-148.52;100.00
3254;BME280;1639;42.804;23.342;2023-04-19T04:30:30;72957.81;;;-148.52;100.00
3254;BME280;1639;42.804;23.342;2023-04-19T04:32:55;72953.66;;;-148.52;100.00
3254;BME280;1639;42.804;23.342;2023-04-19T04:35:24;72945.41;;;-148.52;100.00
3254;BME280;1639;42.804;23.342;2023-04-19T04:37:50;72939.19;;;-148.52;100.00
3254;BME280;1639;42.804;23.342;2023-04-19T04:40:18;72924.72;;;-148.52;100.00
3254;BME280;1639;42.804;23.342;2023-04-19T04:42:43;72906.09;;;-148.52;100.00
3254;BME280;1639;42.804;23.342;2023-04-19T04:45:10;72897.81;;;-148.52;100.00
3254;BME280;1639;42.804;23.342;2023-04-19T04:47:36;72891.63;;;-148.52;100.00
3254;BME280;1639;42.804;23.342;2023-04-19T04:50:02;72889.56;;;-148.52;100.00
3254;BME280;1639;42.804;23.342;2023-04-19T04:52:28;72877.16;;;-148.52;100.00
3254;BME280;1639;42.804;23.342;2023-04-19T04:54:54;72879.22;;;-148.52;100.00
3254;BME280;1639;42.804;23.342;2023-04-19T04:57:19;72881.28;;;-148.52;100.00
3254;BME280;1639;42.804;23.342;2023-04-19T04:59:45;72883.34;;;-148.52;100.00
3254;BME280;1639;42.804;23.342;2023-04-19T05:02:15;72877.16;;;-148.52;99.99
3254;BME280;1639;42.804;23.342;2023-04-19T05:04:41;72870.94;;;-148.52;97.37
3254;BME280;1639;42.804;23.342;2023-04-19T05:07:06;72864.75;;;-148.52;95.93
3254;BME280;1639;42.804;23.342;2023-04-19T05:09:32;72852.31;;;-148.52;93.87
3254;BME280;1639;42.804;23.342;2023-04-19T05:11:57;72854.41;;;-148.52;94.40
3254;BME280;1639;42.804;23.342;2023-04-19T05:14:22;72852.31;;;-148.52;95.52
3254;BME280;1639;42.804;23.342;2023-04-19T05:16:48;72846.13;;;-148.52;96.07
3254;BME280;1639;42.804;23.342;2023-04-19T05:19:13;72833.72;;;-148.52;94.33
3254;BME280;1639;42.804;23.342;2023-04-19T05:21:38;72852.31;;;-148.52;92.18
3254;BME280;1639;42.804;23.342;2023-04-19T05:24:04;72842.00;;;-148.52;91.67
3254;BME280;1639;42.804;23.342;2023-04-19T05:26:29;72835.78;;;-148.52;90.15
3254;BME280;1639;42.804;23.342;2023-04-19T05:28:56;72839.91;;;-148.52;86.44
3254;BME280;1639;42.804;23.342;2023-04-19T05:31:21;72827.50;;;-148.52;86.64
3254;BME280;1639;42.804;23.342;2023-04-19T05:33:47;72819.25;;;-148.52;88.69
3254;BME280;1639;42.804;23.342;2023-04-19T05:36:12;72815.09;;;-148.52;88.76
3254;BME280;1639;42.804;23.342;2023-04-19T05:38:37;72808.91;;;-148.52;86.61
3254;BME280;1639;42.804;23.342;2023-04-19T05:41:03;72810.97;;;-148.52;86.99
3254;BME280;1639;42.804;23.342;2023-04-19T05:43:29;72810.97;;;-148.52;86.82
3254;BME280;1639;42.804;23.342;2023-04-19T05:45:55;72806.81;;;-148.52;85.97
3254;BME280;1639;42.804;23.342;2023-04-19T05:48:20;72796.50;;;-148.52;83.92
3254;BME280;1639;42.804;23.342;2023-04-19T05:50:46;72796.50;;;-148.52;82.37
3254;BME280;1639;42.804;23.342;2023-04-19T05:53:11;72790.28;;;-148.52;81.29
3254;BME280;1639;42.804;23.342;2023-04-19T05:55:36;72796.50;;;-148.52;81.03
3254;BME280;1639;42.804;23.342;2023-04-19T05:58:02;72777.88;;;-148.52;80.93
3254;BME280;1639;42.804;23.342;2023-04-19T06:00:27;72761.34;;;-148.52;80.10
3254;BME280;1639;42.804;23.342;2023-04-19T06:02:52;72748.91;;;-148.52;79.43
3254;BME280;1639;42.804;23.342;2023-04-19T06:05:18;72748.91;;;-148.52;77.36
3254;BME280;1639;42.804;23.342;2023-04-19T06:07:44;72736.50;;;-148.52;75.93
3254;BME280;1639;42.804;23.342;2023-04-19T06:10:10;72730.31;;;-148.52;75.53
3254;BME280;1639;42.804;23.342;2023-04-19T06:12:35;72740.66;;;-148.52;75.29
3254;BME280;1639;42.804;23.342;2023-04-19T06:15:00;72726.19;;;-148.52;75.33
3254;BME280;1639;42.804;23.342;2023-04-19T06:17:26;72711.69;;;-148.52;75.19
3254;BME280;1639;42.804;23.342;2023-04-19T06:19:52;72711.69;;;-148.52;72.54
3254;BME280;1639;42.804;23.342;2023-04-19T06:22:17;72722.03;;;-148.52;73.72
3254;BME280;1639;42.804;23.342;2023-04-19T06:24:44;72711.69;;;-148.52;73.22
3254;BME280;1639;42.804;23.342;2023-04-19T06:27:10;72715.84;;;-148.52;71.31
3254;BME280;1639;42.804;23.342;2023-04-19T06:29:35;72715.84;;;-148.52;71.43
3254;BME280;1639;42.804;23.342;2023-04-19T06:32:01;72713.75;;;-148.52;68.76
3254;BME280;1639;42.804;23.342;2023-04-19T06:34:26;72719.97;;;-148.52;68.88
3254;BME280;1639;42.804;23.342;2023-04-19T06:36:52;72711.69;;;-148.52;69.29
3254;BME280;1639;42.804;23.342;2023-04-19T06:39:17;72715.84;;;-148.52;69.98
3254;BME280;1639;42.804;23.342;2023-04-19T06:41:43;72709.63;;;-148.52;69.17
3254;BME280;1639;42.804;23.342;2023-04-19T06:44:08;72707.56;;;-148.52;68.57
3254;BME280;1639;42.804;23.342;2023-04-19T06:46:33;72722.03;;;-148.52;68.56
3254;BME280;1639;42.804;23.342;2023-04-19T06:48:59;72713.75;;;-148.52;68.85
3254;BME280;1639;42.804;23.342;2023-04-19T06:51:24;72711.69;;;-148.52;69.22
3254;BME280;1639;42.804;23.342;2023-04-19T06:53:50;72703.44;;;-148.52;68.83
3254;BME280;1639;42.804;23.342;2023-04-19T06:56:15;72703.44;;;-148.52;68.51
3254;BME280;1639;42.804;23.342;2023-04-19T06:58:41;72699.28;;;-148.52;68.12
3254;BME280;1639;42.804;23.342;2023-04-19T07:01:06;72695.16;;;-148.52;67.25
3254;BME280;1639;42.804;23.342;2023-04-19T07:03:32;72695.16;;;-148.52;67.46
3254;BME280;1639;42.804;23.342;2023-04-19T07:05:57;72684.81;;;-148.52;67.27
3254;BME280;1639;42.804;23.342;2023-04-19T07:08:23;72701.34;;;-148.52;67.02
3254;BME280;1639;42.804;23.342;2023-04-19T07:10:49;72705.50;;;-148.52;67.92
3254;BME280;1639;42.804;23.342;2023-04-19T07:13:15;72707.56;;;-148.52;68.33
3254;BME280;1639;42.804;23.342;2023-04-19T07:15:40;72703.44;;;-148.52;68.02
3254;BME280;1639;42.804;23.342;2023-04-19T07:18:05;72703.44;;;-148.52;67.50
3254;BME280;1639;42.804;23.342;2023-04-19T07:20:31;72695.16;;;-148.52;68.83
3254;BME280;1639;42.804;23.342;2023-04-19T07:22:59;72699.28;;;-148.52;70.19
3254;BME280;1639;42.804;23.342;2023-04-19T07:25:25;72684.81;;;-148.52;71.71
3254;BME280;1639;42.804;23.342;2023-04-19T07:27:52;72678.59;;;-148.52;69.75
3254;BME280;1639;42.804;23.342;2023-04-19T07:30:18;72678.59;;;-148.52;69.15
3254;BME280;1639;42.804;23.342;2023-04-19T07:32:44;72666.19;;;-148.52;69.31
3254;BME280;1639;42.804;23.342;2023-04-19T07:35:10;72653.78;;;-148.52;68.13
3254;BME280;1639;42.804;23.342;2023-04-19T07:37:35;72664.13;;;-148.52;68.14
3254;BME280;1639;42.804;23.342;2023-04-19T07:40:01;72655.84;;;-148.52;67.79
3254;BME280;1639;42.804;23.342;2023-04-19T07:42:28;72668.28;;;-148.52;67.58
3254;BME280;1639;42.804;23.342;2023-04-19T07:44:54;72666.19;;;-148.52;66.25
3254;BME280;1639;42.804;23.342;2023-04-19T07:47:19;72657.94;;;-148.52;66.45
3254;BME280;1639;42.804;23.342;2023-04-19T07:49:45;72643.44;;;-148.52;66.50
3254;BME280;1639;42.804;23.342;2023-04-19T07:52:10;72641.38;;;-148.52;66.60
3254;BME280;1639;42.804;23.342;2023-04-19T07:54:35;72633.13;;;-148.52;67.14
3254;BME280;1639;42.804;23.342;2023-04-19T07:57:03;72616.56;;;-148.52;67.78
3254;BME280;1639;42.804;23.342;2023-04-19T07:59:28;72608.28;;;-148.52;65.73
3254;BME280;1639;42.804;23.342;2023-04-19T08:01:54;72600.03;;;-148.52;66.88
3254;BME280;1639;42.804;23.342;2023-04-19T08:04:20;72581.41;;;-148.52;66.44
3254;BME280;1639;42.804;23.342;2023-04-19T08:06:46;72569.00;;;-148.52;63.85
3254;BME280;1639;42.804;23.342;2023-04-19T08:09:12;72558.66;;;-148.52;64.60
3254;BME280;1639;42.804;23.342;2023-04-19T08:11:38;72537.97;;;-148.52;64.10
3254;BME280;1639;42.804;23.342;2023-04-19T08:14:03;72527.66;;;-148.52;62.38
3254;BME280;1639;42.804;23.342;2023-04-19T08:16:28;72500.75;;;-148.52;63.20
3254;BME280;1639;42.804;23.342;2023-04-19T08:18:54;72480.09;;;-148.52;62.47
3254;BME280;1639;42.804;23.342;2023-04-19T08:21:20;72467.66;;;-148.52;62.73
3254;BME280;1639;42.804;23.342;2023-04-19T08:23:45;72453.19;;;-148.52;61.41
3254;BME280;1639;42.804;23.342;2023-04-19T08:26:11;72430.44;;;-148.52;62.10
3254;BME280;1639;42.804;23.342;2023-04-19T08:28:36;72436.66;;;-148.52;59.84
3254;BME280;1639;42.804;23.342;2023-04-19T08:31:04;72430.44;;;-148.52;60.55
3254;BME280;1639;42.804;23.342;2023-04-19T08:33:31;72434.59;;;-148.52;60.71
3254;BME280;1639;42.804;23.342;2023-04-19T08:35:56;72422.19;;;-148.52;60.37
3254;BME280;1639;42.804;23.342;2023-04-19T08:38:22;72422.19;;;-148.52;60.11
3254;BME280;1639;42.804;23.342;2023-04-19T08:40:51;72424.25;;;-148.52;59.48
3254;BME280;1639;42.804;23.342;2023-04-19T08:43:18;72430.44;;;-148.52;59.97
3254;BME280;1639;42.804;23.342;2023-04-19T08:45:46;72424.25;;;-148.52;59.46
3254;BME280;1639;42.804;23.342;2023-04-19T08:48:14;72413.91;;;-148.52;60.39
3254;BME280;1639;42.804;23.342;2023-04-19T08:50:40;72393.22;;;-148.52;60.04
3254;BME280;1639;42.804;23.342;2023-04-19T08:53:09;72399.44;;;-148.52;59.74
3254;BME280;1639;42.804;23.342;2023-04-19T08:55:37;72368.41;;;-148.52;58.80
3254;BME280;1639;42.804;23.342;2023-04-19T08:58:03;72333.25;;;-148.52;60.36
3254;BME280;1639;42.804;23.342;2023-04-19T09:00:31;72285.69;;;-148.52;58.03
3254;BME280;1639;42.804;23.342;2023-04-19T09:02:57;72285.69;;;-148.52;57.15
3254;BME280;1639;42.804;23.342;2023-04-19T09:05:23;72281.56;;;-148.52;57.93
3254;BME280;1639;42.804;23.342;2023-04-19T09:07:48;72285.69;;;-148.52;58.03
3254;BME280;1639;42.804;23.342;2023-04-19T09:10:16;72277.44;;;-148.52;57.40
3254;BME280;1639;42.804;23.342;2023-04-19T09:12:42;72289.84;;;-148.52;56.09
3254;BME280;1639;42.804;23.342;2023-04-19T09:15:35;72279.50;;;-148.52;57.18
3254;BME280;1639;42.804;23.342;2023-04-19T09:18:07;72248.47;;;-148.52;57.01
3254;BME280;1639;42.804;23.342;2023-04-19T09:20:41;72219.53;;;-148.52;54.83
3254;BME280;1639;42.804;23.342;2023-04-19T09:23:10;72213.31;;;-148.52;55.06
3254;BME280;1639;42.804;23.342;2023-04-19T09:25:40;72200.91;;;-148.52;54.83
3254;BME280;1639;42.804;23.342;2023-04-19T09:28:15;72161.63;;;-148.52;54.00
3254;BME280;1639;42.804;23.342;2023-04-19T09:30:40;72124.41;;;-148.52;54.47
3254;BME280;1639;42.804;23.342;2023-04-19T09:33:06;72089.25;;;-148.52;53.35
3254;BME280;1639;42.804;23.342;2023-04-19T09:35:43;72070.66;;;-148.52;53.69
3254;BME280;1639;42.804;23.342;2023-04-19T09:38:12;72029.28;;;-148.52;50.67
3254;BME280;1639;42.804;23.342;2023-04-19T09:40:38;71994.13;;;-148.52;50.43
3254;BME280;1639;42.804;23.342;2023-04-19T09:43:04;71992.06;;;-148.52;50.39
3254;BME280;1639;42.804;23.342;2023-04-19T09:45:43;71973.47;;;-148.52;49.72
3254;BME280;1639;42.804;23.342;2023-04-19T09:48:09;71969.34;;;-148.52;49.58
3254;BME280;1639;42.804;23.342;2023-04-19T09:50:36;71983.81;;;-148.52;50.37
3254;BME280;1639;42.804;23.342;2023-04-19T09:53:15;71973.47;;;-148.52;51.37
3254;BME280;1639;42.804;23.342;2023-04-19T09:55:41;71977.59;;;-148.52;50.78
3254;BME280;1639;42.804;23.342;2023-04-19T09:58:07;71981.75;;;-148.52;48.10
3254;BME280;1639;42.804;23.342;2023-04-19T10:00:32;71944.53;;;-148.52;50.52
3254;BME280;1639;42.804;23.342;2023-04-19T10:02:59;71919.72;;;-148.52;49.71
3254;BME280;1639;42.804;23.342;2023-04-19T10:05:25;71888.69;;;-148.52;50.38
3254;BME280;1639;42.804;23.342;2023-04-19T10:07:51;71890.75;;;-148.52;48.64
3254;BME280;1639;42.804;23.342;2023-04-19T10:10:17;71868.00;;;-148.52;48.31
3254;BME280;1639;42.804;23.342;2023-04-19T10:12:48;71861.81;;;-148.52;49.31
3254;BME280;1639;42.804;23.342;2023-04-19T10:15:15;71865.94;;;-148.52;48.89
3254;BME280;1639;42.804;23.342;2023-04-19T10:17:42;71878.34;;;-148.52;47.94
3254;BME280;1639;42.804;23.342;2023-04-19T10:20:14;71896.97;;;-148.52;48.11
3254;BME280;1639;42.804;23.342;2023-04-19T10:22:41;71872.16;;;-148.52;48.34
3254;BME280;1639;42.804;23.342;2023-04-19T10:25:16;71830.81;;;-148.52;47.42
3254;BME280;1639;42.804;23.342;2023-04-19T10:27:43;71876.28;;;-148.52;48.14
3254;BME280;1639;42.804;23.342;2023-04-19T10:30:24;71841.13;;;-148.52;49.12
3254;BME280;1639;42.804;23.342;2023-04-19T10:32:53;71837.00;;;-148.52;47.47
3254;BME280;1639;42.804;23.342;2023-04-19T10:35:25;71857.69;;;-148.52;46.14
3254;BME280;1639;42.804;23.342;2023-04-19T10:38:11;71909.38;;;-148.52;45.96
3254;BME280;1639;42.804;23.342;2023-04-19T10:43:33;71930.03;;;-148.52;47.34
3254;BME280;1639;42.804;23.342;2023-04-19T10:51:18;72031.38;;;-148.52;48.70
3254;BME280;1639;42.804;23.342;2023-04-19T11:01:50;72087.19;;;-148.52;50.81
3254;BME280;1639;42.804;23.342;2023-04-19T11:09:24;72213.31;;;-148.52;54.91
3254;BME280;1639;42.804;23.342;2023-04-19T11:11:53;72310.50;;;-148.52;58.01
3254;BME280;1639;42.804;23.342;2023-04-19T11:14:22;72327.06;;;-148.52;59.19
3254;BME280;1639;42.804;23.342;2023-04-19T11:16:48;72343.59;;;-148.52;59.43
3254;BME280;1639;42.804;23.342;2023-04-19T11:19:17;72387.03;;;-148.52;62.14
3254;BME280;1639;42.804;23.342;2023-04-19T11:21:46;72420.09;;;-148.52;64.05
3254;BME280;1639;42.804;23.342;2023-04-19T11:24:12;72415.97;;;-148.52;66.04
3254;BME280;1639;42.804;23.342;2023-04-19T11:26:42;72401.50;;;-148.52;65.27
3254;BME280;1639;42.804;23.342;2023-04-19T11:29:08;72436.66;;;-148.52;62.47
3254;BME280;1639;42.804;23.342;2023-04-19T11:31:34;72459.41;;;-148.52;64.93
3254;BME280;1639;42.804;23.342;2023-04-19T11:33:59;72463.53;;;-148.52;66.32
3254;BME280;1639;42.804;23.342;2023-04-19T11:36:25;72457.34;;;-148.52;65.68
3254;BME280;1639;42.804;23.342;2023-04-19T11:38:51;72478.00;;;-148.52;66.52
3254;BME280;1639;42.804;23.342;2023-04-19T11:41:17;72500.75;;;-148.52;67.80
3254;BME280;1639;42.804;23.342;2023-04-19T11:43:42;72484.22;;;-148.52;72.14
3254;BME280;1639;42.804;23.342;2023-04-19T11:46:12;72535.91;;;-148.52;71.63
3254;BME280;1639;42.804;23.342;2023-04-19T11:48:38;72529.72;;;-148.52;72.10
3254;BME280;1639;42.804;23.342;2023-04-19T11:51:04;72509.03;;;-148.52;73.51
3254;BME280;1639;42.804;23.342;2023-04-19T11:53:31;72523.50;;;-148.52;79.60
3254;BME280;1639;42.804;23.342;2023-04-19T11:56:05;72502.81;;;-148.52;78.79
3254;BME280;1639;42.804;23.342;2023-04-19T11:58:44;72511.09;;;-148.52;76.16
3254;BME280;1639;42.804;23.342;2023-04-19T12:06:23;72467.66;;;-148.52;74.06
3254;BME280;1639;42.804;23.342;2023-04-19T12:08:50;72480.09;;;-148.52;68.10
3254;BME280;1639;42.804;23.342;2023-04-19T12:11:22;72455.25;;;-148.52;68.22
3254;BME280;1639;42.804;23.342;2023-04-19T12:14:09;72438.72;;;-148.52;69.38
3254;BME280;1639;42.804;23.342;2023-04-19T12:16:35;72459.41;;;-148.52;65.50
3254;BME280;1639;42.804;23.342;2023-04-19T12:19:18;72449.06;;;-148.52;65.97
3254;BME280;1639;42.804;23.342;2023-04-19T12:21:45;72434.59;;;-148.52;68.73
3254;BME280;1639;42.804;23.342;2023-04-19T12:24:13;72432.53;;;-148.52;68.20
3254;BME280;1639;42.804;23.342;2023-04-19T12:26:52;72407.69;;;-148.52;70.80
3254;BME280;1639;42.804;23.342;2023-04-19T12:29:19;72455.25;;;-148.52;71.52
3254;BME280;1639;42.804;23.342;2023-04-19T12:31:44;72484.22;;;-148.52;76.64
3254;BME280;1639;42.804;23.342;2023-04-19T12:34:09;72517.31;;;-148.52;77.50
3254;BME280;1639;42.804;23.342;2023-04-19T12:36:35;72527.66;;;-148.52;77.09
3254;BME280;1639;42.804;23.342;2023-04-19T12:39:00;72527.66;;;-148.52;78.48
3254;BME280;1639;42.804;23.342;2023-04-19T12:41:26;72527.66;;;-148.52;78.86
3254;BME280;1639;42.804;23.342;2023-04-19T12:43:51;72537.97;;;-148.52;75.72
3254;BME280;1639;42.804;23.342;2023-04-19T12:46:16;72554.53;;;-148.52;72.41
3254;BME280;1639;42.804;23.342;2023-04-19T12:48:42;72562.81;;;-148.52;73.11
3254;BME280;1639;42.804;23.342;2023-04-19T12:51:07;72562.81;;;-148.52;75.56
3254;BME280;1639;42.804;23.342;2023-04-19T12:53:33;72558.66;;;-148.52;76.08
3254;BME280;1639;42.804;23.342;2023-04-19T12:55:58;72612.44;;;-148.52;81.75
3254;BME280;1639;42.804;23.342;2023-04-19T12:58:24;72622.78;;;-148.52;83.92
3254;BME280;1639;42.804;23.342;2023-04-19T13:00:50;72624.84;;;-148.52;85.22
3254;BME280;1639;42.804;23.342;2023-04-19T13:03:15;72616.56;;;-148.52;81.89
3254;BME280;1639;42.804;23.342;2023-04-19T13:05:41;72587.63;;;-148.52;81.34
3254;BME280;1639;42.804;23.342;2023-04-19T13:08:06;72552.47;;;-148.52;84.05
3254;BME280;1639;42.804;23.342;2023-04-19T13:10:31;72517.31;;;-148.52;89.16